sensor_id;sensor_type;location;lat;lon;timestamp;pressure;altitude;pressure_sealevel;temperature
40047;BMP280;31510;48.122;11.576;2023-03-23T00:00:35;95172.38;;;11.12
40047;BMP280;31510;48.122;11.576;2023-03-23T00:03:01;95156.25;;;11.07
40047;BMP280;31510;48.122;11.576;2023-03-23T00:05:26;95170.19;;;11.02
40047;BMP280;31510;48.122;11.576;2023-03-23T00:07:54;95171.84;;;10.99
40047;BMP280;31510;48.122;11.576;2023-03-23T00:10:20;95166.97;;;10.98
40047;BMP280;31510;48.122;11.576;2023-03-23T00:12:45;95165.91;;;10.95
40047;BMP280;31510;48.122;11.576;2023-03-23T00:15:14;95163.69;;;10.94
40047;BMP280;31510;48.122;11.576;2023-03-23T00:17:42;95171.25;;;10.95
40047;BMP280;31510;48.122;11.576;2023-03-23T00:20:08;95170.25;;;10.93
40047;BMP280;31510;48.122;11.576;2023-03-23T00:22:36;95164.78;;;10.87
40047;BMP280;31510;48.122;11.576;2023-03-23T00:25:05;95163.00;;;10.84
40047;BMP280;31510;48.122;11.576;2023-03-23T00:27:30;95157.84;;;10.81
40047;BMP280;31510;48.122;11.576;2023-03-23T00:29:56;95166.00;;;10.77
40047;BMP280;31510;48.122;11.576;2023-03-23T00:32:23;95160.66;;;10.77
40047;BMP280;31510;48.122;11.576;2023-03-23T00:34:56;95161.41;;;10.78
40047;BMP280;31510;48.122;11.576;2023-03-23T00:37:24;95157.56;;;10.79
40047;BMP280;31510;48.122;11.576;2023-03-23T00:39:49;95153.41;;;10.78
40047;BMP280;31510;48.122;11.576;2023-03-23T00:42:17;95160.50;;;10.81
40047;BMP280;31510;48.122;11.576;2023-03-23T00:44:42;95160.50;;;10.81
40047;BMP280;31510;48.122;11.576;2023-03-23T00:47:11;95156.38;;;10.80
40047;BMP280;31510;48.122;11.576;2023-03-23T00:49:38;95155.16;;;10.81
40047;BMP280;31510;48.122;11.576;2023-03-23T00:52:05;95146.44;;;10.80
40047;BMP280;31510;48.122;11.576;2023-03-23T00:54:31;95155.47;;;10.83
40047;BMP280;31510;48.122;11.576;2023-03-23T00:56:57;95148.66;;;10.82
40047;BMP280;31510;48.122;11.576;2023-03-23T00:59:22;95147.47;;;10.83
40047;BMP280;31510;48.122;11.576;2023-03-23T01:01:48;95154.72;;;10.82
40047;BMP280;31510;48.122;11.576;2023-03-23T01:04:15;95145.25;;;10.81
40047;BMP280;31510;48.122;11.576;2023-03-23T01:06:42;95148.66;;;10.82
40047;BMP280;31510;48.122;11.576;2023-03-23T01:09:12;95146.00;;;10.82
40047;BMP280;31510;48.122;11.576;2023-03-23T01:11:41;95154.72;;;10.82
40047;BMP280;31510;48.122;11.576;2023-03-23T01:14:06;95147.19;;;10.81
40047;BMP280;31510;48.122;11.576;2023-03-23T01:16:31;95150.56;;;10.81
40047;BMP280;31510;48.122;11.576;2023-03-23T01:18:57;95136.94;;;10.79
40047;BMP280;31510;48.122;11.576;2023-03-23T01:21:22;95146.16;;;10.78
40047;BMP280;31510;48.122;11.576;2023-03-23T01:23:47;95151.50;;;10.78
40047;BMP280;31510;48.122;11.576;2023-03-23T01:26:18;95140.06;;;10.78
40047;BMP280;31510;48.122;11.576;2023-03-23T01:28:44;95138.44;;;10.80
40047;BMP280;31510;48.122;11.576;2023-03-23T01:31:14;95131.16;;;10.81
40047;BMP280;31510;48.122;11.576;2023-03-23T01:33:40;95129.25;;;10.81
40047;BMP280;31510;48.122;11.576;2023-03-23T01:36:08;95127.78;;;10.80
40047;BMP280;31510;48.122;11.576;2023-03-23T01:38:34;95125.09;;;10.80
40047;BMP280;31510;48.122;11.576;2023-03-23T01:41:00;95125.38;;;10.82
40047;BMP280;31510;48.122;11.576;2023-03-23T01:43:25;95131.00;;;10.84
40047;BMP280;31510;48.122;11.576;2023-03-23T01:45:51;95128.78;;;10.83
40047;BMP280;31510;48.122;11.576;2023-03-23T01:51:06;95123.00;;;10.84
40047;BMP280;31510;48.122;11.576;2023-03-23T01:53:37;95124.94;;;10.84
40047;BMP280;31510;48.122;11.576;2023-03-23T01:56:04;95132.22;;;10.83
40047;BMP280;31510;48.122;11.576;2023-03-23T01:58:32;95127.63;;;10.84
40047;BMP280;31510;48.122;11.576;2023-03-23T02:01:02;95133.41;;;10.82
40047;BMP280;31510;48.122;11.576;2023-03-23T02:03:29;95131.00;;;10.84
40047;BMP280;31510;48.122;11.576;2023-03-23T02:05:57;95133.69;;;10.84
40047;BMP280;31510;48.122;11.576;2023-03-23T02:08:24;95133.41;;;10.82
40047;BMP280;31510;48.122;11.576;2023-03-23T02:10:52;95123.91;;;10.81
40047;BMP280;31510;48.122;11.576;2023-03-23T02:13:17;95124.38;;;10.80
40047;BMP280;31510;48.122;11.576;2023-03-23T02:24:43;95118.28;;;10.79
40047;BMP280;31510;48.122;11.576;2023-03-23T02:27:25;95119.22;;;10.76
40047;BMP280;31510;48.122;11.576;2023-03-23T02:30:05;95111.66;;;10.75
40047;BMP280;31510;48.122;11.576;2023-03-23T02:35:32;95112.50;;;10.81
40047;BMP280;31510;48.122;11.576;2023-03-23T02:40:42;95120.34;;;10.84
40047;BMP280;31510;48.122;11.576;2023-03-23T02:43:12;95114.16;;;10.78
40047;BMP280;31510;48.122;11.576;2023-03-23T02:45:40;95110.94;;;10.75
40047;BMP280;31510;48.122;11.576;2023-03-23T02:48:07;95109.88;;;10.72
40047;BMP280;31510;48.122;11.576;2023-03-23T02:50:34;95114.94;;;10.70
40047;BMP280;31510;48.122;11.576;2023-03-23T02:53:01;95109.31;;;10.68
40047;BMP280;31510;48.122;11.576;2023-03-23T02:55:28;95119.25;;;10.68
40047;BMP280;31510;48.122;11.576;2023-03-23T02:57:55;95124.59;;;10.68
40047;BMP280;31510;48.122;11.576;2023-03-23T03:00:21;95115.53;;;10.65
40047;BMP280;31510;48.122;11.576;2023-03-23T03:02:50;95114.09;;;10.64
40047;BMP280;31510;48.122;11.576;2023-03-23T03:05:42;95106.66;;;10.68
40047;BMP280;31510;48.122;11.576;2023-03-23T03:08:30;95110.78;;;10.69
40047;BMP280;31510;48.122;11.576;2023-03-23T03:11:11;95110.50;;;10.67
40047;BMP280;31510;48.122;11.576;2023-03-23T03:13:47;95119.69;;;10.66
40047;BMP280;31510;48.122;11.576;2023-03-23T03:18:53;95106.09;;;10.64
40047;BMP280;31510;48.122;11.576;2023-03-23T03:21:21;95121.03;;;10.62
40047;BMP280;31510;48.122;11.576;2023-03-23T03:23:53;95115.88;;;10.58
40047;BMP280;31510;48.122;11.576;2023-03-23T03:26:20;95106.56;;;10.54
40047;BMP280;31510;48.122;11.576;2023-03-23T03:28:48;95104.34;;;10.52
40047;BMP280;31510;48.122;11.576;2023-03-23T03:31:17;95111.91;;;10.54
40047;BMP280;31510;48.122;11.576;2023-03-23T03:33:44;95116.47;;;10.53
40047;BMP280;31510;48.122;11.576;2023-03-23T03:36:16;95107.75;;;10.53
40047;BMP280;31510;48.122;11.576;2023-03-23T03:38:43;95108.19;;;10.51
40047;BMP280;31510;48.122;11.576;2023-03-23T03:41:09;95112.50;;;10.49
40047;BMP280;31510;48.122;11.576;2023-03-23T03:43:34;95116.81;;;10.46
40047;BMP280;31510;48.122;11.576;2023-03-23T03:46:00;95116.81;;;10.46
40047;BMP280;31510;48.122;11.576;2023-03-23T03:48:25;95123.19;;;10.49
40047;BMP280;31510;48.122;11.576;2023-03-23T03:50:51;95118.84;;;10.51
40047;BMP280;31510;48.122;11.576;2023-03-23T03:53:17;95119.47;;;10.55
40047;BMP280;31510;48.122;11.576;2023-03-23T03:55:42;95129.06;;;10.53
40047;BMP280;31510;48.122;11.576;2023-03-23T03:58:13;95129.53;;;10.51
40047;BMP280;31510;48.122;11.576;2023-03-23T04:00:39;95132.19;;;10.51
40047;BMP280;31510;48.122;11.576;2023-03-23T04:03:05;95126.41;;;10.53
40047;BMP280;31510;48.122;11.576;2023-03-23T04:05:31;95137.97;;;10.50
40047;BMP280;31510;48.122;11.576;2023-03-23T04:07:56;95137.97;;;10.50
40047;BMP280;31510;48.122;11.576;2023-03-23T04:10:28;95136.22;;;10.47
40047;BMP280;31510;48.122;11.576;2023-03-23T04:12:54;95127.66;;;10.43
40047;BMP280;31510;48.122;11.576;2023-03-23T04:15:20;95123.94;;;10.40
40047;BMP280;31510;48.122;11.576;2023-03-23T04:17:45;95130.47;;;10.39
40047;BMP280;31510;48.122;11.576;2023-03-23T04:20:11;95141.56;;;10.38
40047;BMP280;31510;48.122;11.576;2023-03-23T04:22:46;95144.53;;;10.40
40047;BMP280;31510;48.122;11.576;2023-03-23T04:25:15;95146.47;;;10.39
40047;BMP280;31510;48.122;11.576;2023-03-23T04:27:41;95141.88;;;10.40
40047;BMP280;31510;48.122;11.576;2023-03-23T04:30:12;95147.63;;;10.38
40047;BMP280;31510;48.122;11.576;2023-03-23T04:32:38;95150.00;;;10.36
40047;BMP280;31510;48.122;11.576;2023-03-23T04:35:08;95154.63;;;10.36
40047;BMP280;31510;48.122;11.576;2023-03-23T04:37:34;95155.06;;;10.35
40047;BMP280;31510;48.122;11.576;2023-03-23T04:40:00;95155.50;;;10.33
40047;BMP280;31510;48.122;11.576;2023-03-23T04:42:30;95147.66;;;10.30
40047;BMP280;31510;48.122;11.576;2023-03-23T04:44:58;95161.16;;;10.26
40047;BMP280;31510;48.122;11.576;2023-03-23T04:47:26;95151.09;;;10.21
40047;BMP280;31510;48.122;11.576;2023-03-23T04:49:56;95156.56;;;10.18
40047;BMP280;31510;48.122;11.576;2023-03-23T04:52:23;95149.00;;;10.16
40047;BMP280;31510;48.122;11.576;2023-03-23T04:54:50;95145.03;;;10.12
40047;BMP280;31510;48.122;11.576;2023-03-23T04:57:15;95153.03;;;10.12
40047;BMP280;31510;48.122;11.576;2023-03-23T04:59:41;95154.97;;;10.11
40047;BMP280;31510;48.122;11.576;2023-03-23T05:02:07;95163.69;;;10.12
40047;BMP280;31510;48.122;11.576;2023-03-23T05:04:32;95161.03;;;10.12
40047;BMP280;31510;48.122;11.576;2023-03-23T05:06:58;95160.28;;;10.11
40047;BMP280;31510;48.122;11.576;2023-03-23T05:09:23;95165.63;;;10.11
40047;BMP280;31510;48.122;11.576;2023-03-23T05:11:49;95161.03;;;10.12
40047;BMP280;31510;48.122;11.576;2023-03-23T05:14:14;95173.63;;;10.11
40047;BMP280;31510;48.122;11.576;2023-03-23T05:16:40;95160.28;;;10.11
40047;BMP280;31510;48.122;11.576;2023-03-23T05:19:05;95150.38;;;10.12
40047;BMP280;31510;48.122;11.576;2023-03-23T05:21:31;95155.69;;;10.12
40047;BMP280;31510;48.122;11.576;2023-03-23T05:23:56;95173.16;;;10.13
40047;BMP280;31510;48.122;11.576;2023-03-23T05:26:25;95169.31;;;10.14
40047;BMP280;31510;48.122;11.576;2023-03-23T05:28:54;95171.97;;;10.14
40047;BMP280;31510;48.122;11.576;2023-03-23T05:31:21;95181.91;;;10.13
40047;BMP280;31510;48.122;11.576;2023-03-23T05:33:46;95184.72;;;10.10
40047;BMP280;31510;48.122;11.576;2023-03-23T05:36:11;95189.28;;;10.09
40047;BMP280;31510;48.122;11.576;2023-03-23T05:38:39;95191.50;;;10.11
40047;BMP280;31510;48.122;11.576;2023-03-23T05:41:07;95180.69;;;10.14
40047;BMP280;31510;48.122;11.576;2023-03-23T05:43:33;95192.41;;;10.17
40047;BMP280;31510;48.122;11.576;2023-03-23T05:45:59;95192.84;;;10.15
40047;BMP280;31510;48.122;11.576;2023-03-23T05:48:24;95188.25;;;10.16
40047;BMP280;31510;48.122;11.576;2023-03-23T05:50:50;95177.59;;;10.16
40047;BMP280;31510;48.122;11.576;2023-03-23T05:53:15;95159.22;;;10.18
40047;BMP280;31510;48.122;11.576;2023-03-23T05:55:41;95160.56;;;10.22
40047;BMP280;31510;48.122;11.576;2023-03-23T05:58:06;95144.59;;;10.22
40047;BMP280;31510;48.122;11.576;2023-03-23T06:00:32;95135.38;;;10.23
40047;BMP280;31510;48.122;11.576;2023-03-23T06:02:57;95125.78;;;10.26
40047;BMP280;31510;48.122;11.576;2023-03-23T06:05:23;95119.25;;;10.27
40047;BMP280;31510;48.122;11.576;2023-03-23T06:07:50;95120.56;;;10.31
40047;BMP280;31510;48.122;11.576;2023-03-23T06:10:16;95118.47;;;10.35
40047;BMP280;31510;48.122;11.576;2023-03-23T06:12:41;95118.78;;;10.37
40047;BMP280;31510;48.122;11.576;2023-03-23T06:15:08;95120.53;;;10.40
40047;BMP280;31510;48.122;11.576;2023-03-23T06:17:34;95121.56;;;10.42
40047;BMP280;31510;48.122;11.576;2023-03-23T06:19:59;95131.78;;;10.44
40047;BMP280;31510;48.122;11.576;2023-03-23T06:22:25;95132.78;;;10.46
40047;BMP280;31510;48.122;11.576;2023-03-23T06:24:51;95128.50;;;10.49
40047;BMP280;31510;48.122;11.576;2023-03-23T06:27:17;95143.59;;;10.52
40047;BMP280;31510;48.122;11.576;2023-03-23T06:29:42;95155.28;;;10.54
40047;BMP280;31510;48.122;11.576;2023-03-23T06:32:10;95156.00;;;10.55
40047;BMP280;31510;48.122;11.576;2023-03-23T06:34:36;95153.34;;;10.55
40047;BMP280;31510;48.122;11.576;2023-03-23T06:37:02;95158.53;;;10.58
40047;BMP280;31510;48.122;11.576;2023-03-23T06:39:28;95151.72;;;10.57
40047;BMP280;31510;48.122;11.576;2023-03-23T06:41:53;95159.56;;;10.61
40047;BMP280;31510;48.122;11.576;2023-03-23T06:44:18;95149.91;;;10.63
40047;BMP280;31510;48.122;11.576;2023-03-23T06:46:44;95147.53;;;10.65
40047;BMP280;31510;48.122;11.576;2023-03-23T06:49:09;95144.44;;;10.67
40047;BMP280;31510;48.122;11.576;2023-03-23T06:51:35;95133.88;;;10.72
40047;BMP280;31510;48.122;11.576;2023-03-23T06:54:01;95121.88;;;10.76
40047;BMP280;31510;48.122;11.576;2023-03-23T06:56:27;95119.50;;;10.78
40047;BMP280;31510;48.122;11.576;2023-03-23T06:58:52;95113.53;;;10.83
40047;BMP280;31510;48.122;11.576;2023-03-23T07:01:18;95112.91;;;10.88
40047;BMP280;31510;48.122;11.576;2023-03-23T07:03:43;95107.69;;;10.94
40047;BMP280;31510;48.122;11.576;2023-03-23T07:06:09;95103.22;;;11.00
40047;BMP280;31510;48.122;11.576;2023-03-23T07:08:35;95100.66;;;11.05
40047;BMP280;31510;48.122;11.576;2023-03-23T07:11:02;95110.84;;;11.15
40047;BMP280;31510;48.122;11.576;2023-03-23T07:13:27;95115.53;;;11.20
40047;BMP280;31510;48.122;11.576;2023-03-23T07:15:53;95120.53;;;11.27
40047;BMP280;31510;48.122;11.576;2023-03-23T07:18:20;95123.78;;;11.31
40047;BMP280;31510;48.122;11.576;2023-03-23T07:20:49;95132.16;;;11.39
40047;BMP280;31510;48.122;11.576;2023-03-23T07:23:15;95137.59;;;11.44
40047;BMP280;31510;48.122;11.576;2023-03-23T07:25:42;95129.28;;;11.51
40047;BMP280;31510;48.122;11.576;2023-03-23T07:28:07;95127.44;;;11.57
40047;BMP280;31510;48.122;11.576;2023-03-23T07:30:34;95131.72;;;11.63
40047;BMP280;31510;48.122;11.576;2023-03-23T07:33:04;95120.69;;;11.70
40047;BMP280;31510;48.122;11.576;2023-03-23T07:35:29;95117.94;;;11.79
40047;BMP280;31510;48.122;11.576;2023-03-23T07:37:55;95121.25;;;11.89
40047;BMP280;31510;48.122;11.576;2023-03-23T07:40:20;95117.56;;;12.00
40047;BMP280;31510;48.122;11.576;2023-03-23T07:42:52;95106.63;;;12.13
40047;BMP280;31510;48.122;11.576;2023-03-23T07:45:18;95114.63;;;12.27
40047;BMP280;31510;48.122;11.576;2023-03-23T07:47:43;95116.28;;;12.39
40047;BMP280;31510;48.122;11.576;2023-03-23T07:50:09;95122.56;;;12.50
40047;BMP280;31510;48.122;11.576;2023-03-23T07:52:35;95123.19;;;12.60
40047;BMP280;31510;48.122;11.576;2023-03-23T07:55:02;95125.03;;;12.68
40047;BMP280;31510;48.122;11.576;2023-03-23T07:57:29;95112.44;;;12.74
40047;BMP280;31510;48.122;11.576;2023-03-23T07:59:54;95117.88;;;12.79
40047;BMP280;31510;48.122;11.576;2023-03-23T08:02:20;95122.16;;;12.86
40047;BMP280;31510;48.122;11.576;2023-03-23T08:04:46;95117.34;;;12.90
40047;BMP280;31510;48.122;11.576;2023-03-23T08:07:13;95108.66;;;12.95
40047;BMP280;31510;48.122;11.576;2023-03-23T08:09:38;95108.91;;;12.97
40047;BMP280;31510;48.122;11.576;2023-03-23T08:12:04;95113.63;;;13.02
40047;BMP280;31510;48.122;11.576;2023-03-23T08:14:29;95111.47;;;13.06
40047;BMP280;31510;48.122;11.576;2023-03-23T08:16:55;95112.28;;;13.12
40047;BMP280;31510;48.122;11.576;2023-03-23T08:19:22;95106.53;;;13.18
40047;BMP280;31510;48.122;11.576;2023-03-23T08:21:48;95103.19;;;13.23
40047;BMP280;31510;48.122;11.576;2023-03-23T08:24:13;95112.50;;;13.28
40047;BMP280;31510;48.122;11.576;2023-03-23T08:26:39;95117.19;;;13.33
40047;BMP280;31510;48.122;11.576;2023-03-23T08:29:05;95110.41;;;13.37
40047;BMP280;31510;48.122;11.576;2023-03-23T08:31:31;95116.31;;;13.41
40047;BMP280;31510;48.122;11.576;2023-03-23T08:34:00;95120.00;;;13.44
40047;BMP280;31510;48.122;11.576;2023-03-23T08:36:26;95118.06;;;13.44
40047;BMP280;31510;48.122;11.576;2023-03-23T08:38:52;95120.31;;;13.51
40047;BMP280;31510;48.122;11.576;2023-03-23T08:41:18;95118.19;;;13.55
40047;BMP280;31510;48.122;11.576;2023-03-23T08:43:43;95117.72;;;13.56
40047;BMP280;31510;48.122;11.576;2023-03-23T08:46:09;95113.44;;;13.64
40047;BMP280;31510;48.122;11.576;2023-03-23T08:48:37;95117.16;;;13.72
40047;BMP280;31510;48.122;11.576;2023-03-23T08:51:04;95112.38;;;13.82
40047;BMP280;31510;48.122;11.576;2023-03-23T08:53:30;95122.69;;;13.89
40047;BMP280;31510;48.122;11.576;2023-03-23T08:55:56;95121.28;;;13.93
40047;BMP280;31510;48.122;11.576;2023-03-23T08:58:27;95132.06;;;13.98
40047;BMP280;31510;48.122;11.576;2023-03-23T09:00:53;95135.53;;;14.04
40047;BMP280;31510;48.122;11.576;2023-03-23T09:03:19;95150.94;;;14.09
40047;BMP280;31510;48.122;11.576;2023-03-23T09:05:44;95149.53;;;14.14
40047;BMP280;31510;48.122;11.576;2023-03-23T09:08:11;95150.53;;;14.16
40047;BMP280;31510;48.122;11.576;2023-03-23T09:10:37;95146.44;;;14.21
40047;BMP280;31510;48.122;11.576;2023-03-23T09:13:04;95157.22;;;14.26
40047;BMP280;31510;48.122;11.576;2023-03-23T09:15:29;95158.72;;;14.33
40047;BMP280;31510;48.122;11.576;2023-03-23T09:17:54;95164.94;;;14.44
40047;BMP280;31510;48.122;11.576;2023-03-23T09:20:24;95172.31;;;14.49
40047;BMP280;31510;48.122;11.576;2023-03-23T09:22:52;95171.88;;;14.56
40047;BMP280;31510;48.122;11.576;2023-03-23T09:25:20;95177.75;;;14.60
40047;BMP280;31510;48.122;11.576;2023-03-23T09:27:49;95176.63;;;14.66
40047;BMP280;31510;48.122;11.576;2023-03-23T09:30:18;95170.78;;;14.73
40047;BMP280;31510;48.122;11.576;2023-03-23T09:32:44;95183.03;;;14.79
40047;BMP280;31510;48.122;11.576;2023-03-23T09:35:10;95192.38;;;14.84
40047;BMP280;31510;48.122;11.576;2023-03-23T09:37:39;95179.72;;;14.90
40047;BMP280;31510;48.122;11.576;2023-03-23T09:40:09;95178.81;;;14.98
40047;BMP280;31510;48.122;11.576;2023-03-23T09:45:22;95175.78;;;15.16
40047;BMP280;31510;48.122;11.576;2023-03-23T09:50:25;95175.63;;;15.30
40047;BMP280;31510;48.122;11.576;2023-03-23T09:52:57;95171.00;;;15.36
40047;BMP280;31510;48.122;11.576;2023-03-23T09:55:23;95163.72;;;15.42
40047;BMP280;31510;48.122;11.576;2023-03-23T09:57:55;95169.88;;;15.54
40047;BMP280;31510;48.122;11.576;2023-03-23T10:00:25;95168.97;;;15.67
40047;BMP280;31510;48.122;11.576;2023-03-23T10:03:14;95167.56;;;15.77
40047;BMP280;31510;48.122;11.576;2023-03-23T10:05:51;95170.75;;;15.87
40047;BMP280;31510;48.122;11.576;2023-03-23T10:10:57;95170.06;;;16.02
40047;BMP280;31510;48.122;11.576;2023-03-23T10:16:17;95170.84;;;16.14
40047;BMP280;31510;48.122;11.576;2023-03-23T10:19:18;95165.97;;;16.18
40047;BMP280;31510;48.122;11.576;2023-03-23T10:21:50;95164.00;;;16.18
40047;BMP280;31510;48.122;11.576;2023-03-23T10:24:21;95177.69;;;16.15
40047;BMP280;31510;48.122;11.576;2023-03-23T10:29:22;95179.16;;;16.05
40047;BMP280;31510;48.122;11.576;2023-03-23T10:31:59;95179.09;;;15.99
40047;BMP280;31510;48.122;11.576;2023-03-23T10:34:34;95182.53;;;15.95
40047;BMP280;31510;48.122;11.576;2023-03-23T10:37:05;95180.06;;;15.91
40047;BMP280;31510;48.122;11.576;2023-03-23T10:39:42;95185.69;;;15.88
40047;BMP280;31510;48.122;11.576;2023-03-23T10:42:09;95178.56;;;15.85
40047;BMP280;31510;48.122;11.576;2023-03-23T10:44:35;95190.28;;;15.82
40047;BMP280;31510;48.122;11.576;2023-03-23T10:47:03;95177.34;;;15.80
40047;BMP280;31510;48.122;11.576;2023-03-23T10:49:40;95174.41;;;15.84
40047;BMP280;31510;48.122;11.576;2023-03-23T10:52:27;95175.91;;;15.90
40047;BMP280;31510;48.122;11.576;2023-03-23T10:55:02;95174.72;;;15.97
40047;BMP280;31510;48.122;11.576;2023-03-23T10:57:30;95182.06;;;16.01
40047;BMP280;31510;48.122;11.576;2023-03-23T11:00:20;95178.16;;;16.08
40047;BMP280;31510;48.122;11.576;2023-03-23T11:02:57;95176.97;;;16.14
40047;BMP280;31510;48.122;11.576;2023-03-23T11:05:27;95175.53;;;16.19
40047;BMP280;31510;48.122;11.576;2023-03-23T11:07:59;95176.03;;;16.23
40047;BMP280;31510;48.122;11.576;2023-03-23T11:10:34;95169.66;;;16.26
40047;BMP280;31510;48.122;11.576;2023-03-23T11:12:59;95186.56;;;16.32
40047;BMP280;31510;48.122;11.576;2023-03-23T11:15:37;95182.41;;;16.31
40047;BMP280;31510;48.122;11.576;2023-03-23T11:18:34;95182.41;;;16.31
40047;BMP280;31510;48.122;11.576;2023-03-23T11:20:56;95185.09;;;16.31
40047;BMP280;31510;48.122;11.576;2023-03-23T11:26:29;95170.94;;;16.41
40047;BMP280;31510;48.122;11.576;2023-03-23T11:29:12;95169.47;;;16.45
40047;BMP280;31510;48.122;11.576;2023-03-23T11:31:46;95165.06;;;16.48
40047;BMP280;31510;48.122;11.576;2023-03-23T11:34:19;95163.59;;;16.47
40047;BMP280;31510;48.122;11.576;2023-03-23T11:41:48;95149.69;;;16.65
40047;BMP280;31510;48.122;11.576;2023-03-23T11:44:14;95159.44;;;16.73
40047;BMP280;31510;48.122;11.576;2023-03-23T11:49:36;95155.78;;;16.81
40047;BMP280;31510;48.122;11.576;2023-03-23T11:52:54;95158.72;;;16.83
40047;BMP280;31510;48.122;11.576;2023-03-23T11:55:00;95149.66;;;16.86
40047;BMP280;31510;48.122;11.576;2023-03-23T11:57:29;95153.56;;;16.85
40047;BMP280;31510;48.122;11.576;2023-03-23T11:59:56;95154.56;;;16.88
40047;BMP280;31510;48.122;11.576;2023-03-23T12:05:25;95155.78;;;16.92
40047;BMP280;31510;48.122;11.576;2023-03-23T12:08:07;95149.91;;;16.94
40047;BMP280;31510;48.122;11.576;2023-03-23T12:11:15;95137.69;;;16.93
40047;BMP280;31510;48.122;11.576;2023-03-23T12:16:58;95135.22;;;16.95
40047;BMP280;31510;48.122;11.576;2023-03-23T12:22:00;95127.38;;;16.97
40047;BMP280;31510;48.122;11.576;2023-03-23T12:24:52;95140.84;;;17.02
40047;BMP280;31510;48.122;11.576;2023-03-23T12:27:29;95130.06;;;17.02
40047;BMP280;31510;48.122;11.576;2023-03-23T12:30:11;95128.84;;;17.09
40047;BMP280;31510;48.122;11.576;2023-03-23T12:35:29;95136.44;;;17.16
40047;BMP280;31510;48.122;11.576;2023-03-23T12:40:49;95137.84;;;17.33
40047;BMP280;31510;48.122;11.576;2023-03-23T12:51:37;95116.03;;;17.53
40047;BMP280;31510;48.122;11.576;2023-03-23T12:54:13;95116.75;;;17.53
40047;BMP280;31510;48.122;11.576;2023-03-23T12:57:12;95118.47;;;17.51
40047;BMP280;31510;48.122;11.576;2023-03-23T13:00:20;95110.88;;;17.49
40047;BMP280;31510;48.122;11.576;2023-03-23T13:08:37;95106.44;;;17.52
40047;BMP280;31510;48.122;11.576;2023-03-23T13:11:52;95100.81;;;17.55
40047;BMP280;31510;48.122;11.576;2023-03-23T13:13:55;95100.06;;;17.60
40047;BMP280;31510;48.122;11.576;2023-03-23T13:21:31;95093.19;;;17.59
40047;BMP280;31510;48.122;11.576;2023-03-23T13:24:06;95090.75;;;17.56
40047;BMP280;31510;48.122;11.576;2023-03-23T13:26:37;95098.34;;;17.57
40047;BMP280;31510;48.122;11.576;2023-03-23T13:29:13;95092.22;;;17.57
40047;BMP280;31510;48.122;11.576;2023-03-23T13:31:40;95096.88;;;17.56
40047;BMP280;31510;48.122;11.576;2023-03-23T13:34:17;95086.13;;;17.56
40047;BMP280;31510;48.122;11.576;2023-03-23T13:39:53;95092.94;;;17.57
40047;BMP280;31510;48.122;11.576;2023-03-23T13:42:30;95092.94;;;17.62
40047;BMP280;31510;48.122;11.576;2023-03-23T13:47:43;95090.97;;;17.63
40047;BMP280;31510;48.122;11.576;2023-03-23T13:58:23;95071.66;;;17.48
40047;BMP280;31510;48.122;11.576;2023-03-23T14:01:14;95077.28;;;17.50
40047;BMP280;31510;48.122;11.576;2023-03-23T14:03:43;95088.06;;;17.56
40047;BMP280;31510;48.122;11.576;2023-03-23T14:06:14;95079.72;;;17.54
40047;BMP280;31510;48.122;11.576;2023-03-23T14:08:43;95093.69;;;17.52
40047;BMP280;31510;48.122;11.576;2023-03-23T14:11:15;95091.25;;;17.49
40047;BMP280;31510;48.122;11.576;2023-03-23T14:14:01;95096.91;;;17.45
40047;BMP280;31510;48.122;11.576;2023-03-23T14:16:42;95095.00;;;17.40
40047;BMP280;31510;48.122;11.576;2023-03-23T14:21:42;95099.91;;;17.31
40047;BMP280;31510;48.122;11.576;2023-03-23T14:24:17;95099.91;;;17.25
40047;BMP280;31510;48.122;11.576;2023-03-23T14:26:43;95085.03;;;17.19
40047;BMP280;31510;48.122;11.576;2023-03-23T14:29:11;95094.53;;;17.15
40047;BMP280;31510;48.122;11.576;2023-03-23T14:31:38;95088.69;;;17.11
40047;BMP280;31510;48.122;11.576;2023-03-23T14:34:14;95091.63;;;17.07
40047;BMP280;31510;48.122;11.576;2023-03-23T14:36:40;95086.72;;;17.06
40047;BMP280;31510;48.122;11.576;2023-03-23T14:39:21;95091.88;;;17.04
40047;BMP280;31510;48.122;11.576;2023-03-23T14:41:47;95094.09;;;17.05
40047;BMP280;31510;48.122;11.576;2023-03-23T14:44:22;95088.19;;;17.01
40047;BMP280;31510;48.122;11.576;2023-03-23T14:46:48;95095.53;;;17.01
40047;BMP280;31510;48.122;11.576;2023-03-23T14:49:19;95095.31;;;16.99
40047;BMP280;31510;48.122;11.576;2023-03-23T14:51:47;95083.56;;;16.96
40047;BMP280;31510;48.122;11.576;2023-03-23T14:54:13;95092.88;;;16.95
40047;BMP280;31510;48.122;11.576;2023-03-23T14:56:39;95097.28;;;16.93
40047;BMP280;31510;48.122;11.576;2023-03-23T14:59:05;95103.88;;;16.92
40047;BMP280;31510;48.122;11.576;2023-03-23T15:01:36;95091.41;;;16.89
40047;BMP280;31510;48.122;11.576;2023-03-23T15:04:10;95101.19;;;16.86
40047;BMP280;31510;48.122;11.576;2023-03-23T15:06:37;95092.88;;;16.84
40047;BMP280;31510;48.122;11.576;2023-03-23T15:09:13;95099.97;;;16.82
40047;BMP280;31510;48.122;11.576;2023-03-23T15:11:40;95097.53;;;16.78
40047;BMP280;31510;48.122;11.576;2023-03-23T15:14:21;95099.97;;;16.77
40047;BMP280;31510;48.122;11.576;2023-03-23T15:16:52;95091.91;;;16.77
40047;BMP280;31510;48.122;11.576;2023-03-23T15:19:26;95096.31;;;16.79
40047;BMP280;31510;48.122;11.576;2023-03-23T15:22:04;95105.13;;;16.80
40047;BMP280;31510;48.122;11.576;2023-03-23T15:24:37;95099.00;;;16.79
40047;BMP280;31510;48.122;11.576;2023-03-23T15:27:30;95105.13;;;16.80
40047;BMP280;31510;48.122;11.576;2023-03-23T15:29:58;95095.34;;;16.82
40047;BMP280;31510;48.122;11.576;2023-03-23T15:32:31;95109.78;;;16.85
40047;BMP280;31510;48.122;11.576;2023-03-23T15:34:57;95106.13;;;16.82
40047;BMP280;31510;48.122;11.576;2023-03-23T15:37:30;95107.09;;;16.79
40047;BMP280;31510;48.122;11.576;2023-03-23T15:39:57;95109.06;;;16.79
40047;BMP280;31510;48.122;11.576;2023-03-23T15:42:32;95110.75;;;16.77